TKJ4243 LTCK-LTAC
Flight info
| Callsign | TKJ4243 |
|---|---|
| Flight time | N/A |
| Altitude | 38000 |
| Route | BAYIR UT368 EZS UL614 GEM UW705 BADOX UL605 BALAX UA17 YUCEL |
| Aircraft | B738/M-SDE2E3FGHIRWXY/LB1 |
Departure
| Time | 2026-05-05 19:51 |
|---|---|
| Airport | Muş Airport (LTCK) |
Arrival
| Time | N/A |
|---|---|
| Airport | Esenboğa International Airport (LTAC) |
| Time | Latitude | Longitude | Altitude | Speed | Heading |
|---|---|---|---|---|---|
| 2026-05-05 19:28 | 38.75944 | 41.64693 | 4167 ft | 0 kts | 26° |
| 2026-05-05 19:39 | 38.75932 | 41.64685 | 4168 ft | 3 kts | 23° |
| 2026-05-05 19:39 | 38.75914 | 41.64677 | 4168 ft | 3 kts | 13° |
| 2026-05-05 19:39 | 38.75894 | 41.64673 | 4168 ft | 3 kts | 354° |
| 2026-05-05 19:40 | 38.75878 | 41.64679 | 4166 ft | 4 kts | 314° |
| 2026-05-05 19:40 | 38.75872 | 41.64687 | 4166 ft | 1 kts | 296° |
| 2026-05-05 19:43 | 38.75876 | 41.64677 | 4166 ft | 5 kts | 297° |
| 2026-05-05 19:43 | 38.75849 | 41.64606 | 4166 ft | 17 kts | 207° |
| 2026-05-05 19:44 | 38.75713 | 41.64520 | 4164 ft | 24 kts | 206° |
| 2026-05-05 19:44 | 38.75563 | 41.64425 | 4163 ft | 23 kts | 206° |
| 2026-05-05 19:44 | 38.75447 | 41.64293 | 4159 ft | 22 kts | 229° |
| 2026-05-05 19:44 | 38.75324 | 41.64296 | 4158 ft | 22 kts | 117° |
| 2026-05-05 19:45 | 38.75258 | 41.64468 | 4237 ft | 21 kts | 116° |
| 2026-05-05 19:45 | 38.75193 | 41.64637 | 4241 ft | 22 kts | 116° |
| 2026-05-05 19:45 | 38.75116 | 41.64837 | 4243 ft | 27 kts | 116° |
| 2026-05-05 19:45 | 38.75036 | 41.65043 | 4247 ft | 25 kts | 116° |
| 2026-05-05 19:46 | 38.74961 | 41.65236 | 4244 ft | 23 kts | 116° |
| 2026-05-05 19:46 | 38.74890 | 41.65418 | 4245 ft | 22 kts | 116° |
| 2026-05-05 19:46 | 38.74823 | 41.65593 | 4245 ft | 22 kts | 116° |
| 2026-05-05 19:46 | 38.74758 | 41.65766 | 4243 ft | 21 kts | 116° |
| 2026-05-05 19:47 | 38.74693 | 41.65933 | 4248 ft | 21 kts | 116° |
| 2026-05-05 19:47 | 38.74630 | 41.66095 | 4247 ft | 20 kts | 116° |
| 2026-05-05 19:47 | 38.74569 | 41.66252 | 4247 ft | 20 kts | 117° |
| 2026-05-05 19:47 | 38.74499 | 41.66433 | 4247 ft | 26 kts | 116° |
| 2026-05-05 19:48 | 38.74412 | 41.66659 | 4246 ft | 28 kts | 116° |
| 2026-05-05 19:48 | 38.74328 | 41.66878 | 4241 ft | 27 kts | 116° |
| 2026-05-05 19:48 | 38.74248 | 41.67084 | 4242 ft | 25 kts | 116° |
| 2026-05-05 19:48 | 38.74175 | 41.67273 | 4244 ft | 23 kts | 116° |
| 2026-05-05 19:49 | 38.74105 | 41.67455 | 4243 ft | 22 kts | 116° |
| 2026-05-05 19:49 | 38.74059 | 41.67575 | 4244 ft | 22 kts | 116° |
| 2026-05-05 19:49 | 38.73977 | 41.67806 | 4246 ft | 21 kts | 95° |
| 2026-05-05 19:49 | 38.74081 | 41.67893 | 4243 ft | 21 kts | 331° |
| 2026-05-05 19:50 | 38.74157 | 41.67741 | 4248 ft | 23 kts | 297° |
| 2026-05-05 19:50 | 38.74303 | 41.67359 | 4245 ft | 82 kts | 296° |
| 2026-05-05 19:50 | 38.74658 | 41.66437 | 4249 ft | 146 kts | 296° |
| 2026-05-05 19:50 | 38.75139 | 41.65105 | 4409 ft | 181 kts | 291° |
| 2026-05-05 19:51 | 38.75620 | 41.63639 | 5231 ft | 177 kts | 296° |
| 2026-05-05 19:51 | 38.76171 | 41.62177 | 6007 ft | 186 kts | 295° |
| 2026-05-05 19:51 | 38.76767 | 41.60627 | 6526 ft | 202 kts | 298° |
| 2026-05-05 19:51 | 38.77450 | 41.58940 | 6705 ft | 224 kts | 296° |
| 2026-05-05 19:52 | 38.78171 | 41.57060 | 6873 ft | 246 kts | 295° |
| 2026-05-05 19:52 | 38.78951 | 41.55000 | 7054 ft | 270 kts | 294° |
| 2026-05-05 19:52 | 38.79774 | 41.52801 | 7543 ft | 281 kts | 295° |
| 2026-05-05 19:52 | 38.80628 | 41.50526 | 8271 ft | 285 kts | 294° |
| 2026-05-05 19:53 | 38.81491 | 41.48224 | 9030 ft | 288 kts | 294° |
| 2026-05-05 19:53 | 38.82409 | 41.45916 | 9719 ft | 295 kts | 302° |
| 2026-05-05 19:53 | 38.83927 | 41.44108 | 10308 ft | 307 kts | 329° |
| 2026-05-05 19:53 | 38.86026 | 41.43269 | 10493 ft | 330 kts | 356° |
| 2026-05-05 19:54 | 38.88367 | 41.43617 | 10677 ft | 350 kts | 19° |
| 2026-05-05 19:54 | 38.90550 | 41.45077 | 11086 ft | 359 kts | 40° |
| 2026-05-05 19:54 | 38.92198 | 41.47464 | 11721 ft | 359 kts | 63° |
| 2026-05-05 19:54 | 38.92946 | 41.50437 | 12430 ft | 355 kts | 88° |
| 2026-05-05 19:55 | 38.92612 | 41.53534 | 13164 ft | 351 kts | 114° |
| 2026-05-05 19:55 | 38.91241 | 41.56078 | 13865 ft | 349 kts | 141° |
| 2026-05-05 19:55 | 38.89180 | 41.57690 | 14569 ft | 349 kts | 155° |
| 2026-05-05 19:55 | 38.86950 | 41.58960 | 15254 ft | 352 kts | 157° |
| 2026-05-05 19:56 | 38.84701 | 41.60236 | 15922 ft | 356 kts | 156° |
| 2026-05-05 19:56 | 38.82438 | 41.61575 | 16584 ft | 360 kts | 155° |
| 2026-05-05 19:56 | 38.80155 | 41.62943 | 17254 ft | 364 kts | 158° |
| 2026-05-05 19:56 | 38.77689 | 41.63683 | 17872 ft | 369 kts | 177° |
| 2026-05-05 19:57 | 38.75132 | 41.63278 | 18487 ft | 375 kts | 196° |
| 2026-05-05 19:57 | 38.73537 | 41.62417 | 18881 ft | 378 kts | 207° |
| 2026-05-05 19:57 | 38.70888 | 41.59501 | 19682 ft | 386 kts | 229° |
| 2026-05-05 19:57 | 38.69243 | 41.56777 | 20282 ft | 388 kts | 231° |
| 2026-05-05 19:58 | 38.67624 | 41.53992 | 20828 ft | 392 kts | 231° |
| 2026-05-05 19:58 | 38.65987 | 41.51187 | 21384 ft | 395 kts | 231° |
| 2026-05-05 19:58 | 38.64319 | 41.48379 | 21951 ft | 397 kts | 230° |
| 2026-05-05 19:58 | 38.62629 | 41.45573 | 22514 ft | 400 kts | 230° |
| 2026-05-05 19:59 | 38.60986 | 41.42746 | 23050 ft | 404 kts | 237° |
| 2026-05-05 19:59 | 38.59917 | 41.39401 | 23528 ft | 412 kts | 255° |
| 2026-05-05 19:59 | 38.59679 | 41.35734 | 23992 ft | 418 kts | 270° |
| 2026-05-05 19:59 | 38.59894 | 41.32020 | 24481 ft | 420 kts | 272° |
| 2026-05-05 20:00 | 38.60166 | 41.28291 | 24902 ft | 423 kts | 272° |
| 2026-05-05 20:00 | 38.60449 | 41.24537 | 25290 ft | 426 kts | 272° |
| 2026-05-05 20:00 | 38.60722 | 41.20751 | 25691 ft | 428 kts | 272° |
| 2026-05-05 20:00 | 38.60981 | 41.16949 | 26141 ft | 430 kts | 272° |
| 2026-05-05 20:01 | 38.61225 | 41.13187 | 26561 ft | 432 kts | 271° |
| 2026-05-05 20:01 | 38.61466 | 41.09358 | 26973 ft | 433 kts | 271° |
| 2026-05-05 20:01 | 38.61704 | 41.05506 | 27358 ft | 436 kts | 271° |
| 2026-05-05 20:01 | 38.61941 | 41.01632 | 27681 ft | 438 kts | 271° |
| 2026-05-05 20:02 | 38.62178 | 40.97742 | 28050 ft | 440 kts | 271° |
| 2026-05-05 20:02 | 38.62417 | 40.93826 | 28418 ft | 443 kts | 271° |
| 2026-05-05 20:02 | 38.62655 | 40.89896 | 28768 ft | 445 kts | 271° |
| 2026-05-05 20:02 | 38.62891 | 40.85993 | 29065 ft | 447 kts | 271° |
| 2026-05-05 20:03 | 38.63128 | 40.82019 | 29389 ft | 450 kts | 271° |
| 2026-05-05 20:03 | 38.63353 | 40.78019 | 29678 ft | 452 kts | 270° |
| 2026-05-05 20:03 | 38.63564 | 40.74004 | 30000 ft | 453 kts | 270° |
| 2026-05-05 20:03 | 38.63771 | 40.69984 | 30350 ft | 453 kts | 270° |
| 2026-05-05 20:04 | 38.63978 | 40.65971 | 30741 ft | 451 kts | 270° |
| 2026-05-05 20:04 | 38.64183 | 40.61976 | 31124 ft | 449 kts | 270° |
| 2026-05-05 20:04 | 38.64387 | 40.57994 | 31474 ft | 449 kts | 270° |
| 2026-05-05 20:04 | 38.64591 | 40.54010 | 31819 ft | 448 kts | 270° |
| 2026-05-05 20:05 | 38.64794 | 40.50037 | 32183 ft | 447 kts | 270° |
| 2026-05-05 20:05 | 38.64992 | 40.46125 | 32521 ft | 447 kts | 270° |
| 2026-05-05 20:05 | 38.65192 | 40.42160 | 32857 ft | 446 kts | 270° |
| 2026-05-05 20:05 | 38.65390 | 40.38206 | 33202 ft | 445 kts | 270° |
| 2026-05-05 20:06 | 38.65586 | 40.34260 | 33554 ft | 444 kts | 270° |
| 2026-05-05 20:06 | 38.65780 | 40.30322 | 33883 ft | 443 kts | 270° |
| 2026-05-05 20:06 | 38.65973 | 40.26387 | 34149 ft | 443 kts | 270° |
| 2026-05-05 20:06 | 38.66164 | 40.22458 | 34393 ft | 443 kts | 270° |
| 2026-05-05 20:07 | 38.66356 | 40.18519 | 34617 ft | 444 kts | 270° |
| 2026-05-05 20:07 | 38.66546 | 40.14635 | 34847 ft | 444 kts | 270° |
| 2026-05-05 20:07 | 38.66739 | 40.10703 | 35085 ft | 443 kts | 270° |
| 2026-05-05 20:07 | 38.66931 | 40.06766 | 35316 ft | 443 kts | 270° |
| 2026-05-05 20:08 | 38.67122 | 40.02830 | 35501 ft | 444 kts | 270° |
| 2026-05-05 20:08 | 38.67311 | 39.98887 | 35712 ft | 444 kts | 270° |
| 2026-05-05 20:08 | 38.67499 | 39.94941 | 35950 ft | 444 kts | 270° |
| 2026-05-05 20:08 | 38.67685 | 39.91006 | 36165 ft | 444 kts | 270° |
| 2026-05-05 20:09 | 38.67870 | 39.87063 | 36357 ft | 444 kts | 270° |
| 2026-05-05 20:09 | 38.68051 | 39.83173 | 36558 ft | 444 kts | 270° |
| 2026-05-05 20:09 | 38.68234 | 39.79229 | 36786 ft | 443 kts | 271° |
| 2026-05-05 20:09 | 38.68414 | 39.75291 | 36990 ft | 443 kts | 271° |
| 2026-05-05 20:10 | 38.68594 | 39.71354 | 37171 ft | 444 kts | 270° |
| 2026-05-05 20:10 | 38.68772 | 39.67409 | 37366 ft | 444 kts | 271° |
| 2026-05-05 20:10 | 38.68949 | 39.63468 | 37566 ft | 444 kts | 271° |
| 2026-05-05 20:10 | 38.69126 | 39.59524 | 37760 ft | 443 kts | 271° |
| 2026-05-05 20:11 | 38.69300 | 39.55581 | 37913 ft | 444 kts | 271° |
| 2026-05-05 20:11 | 38.69653 | 39.47715 | 37930 ft | 446 kts | 271° |
| 2026-05-05 20:12 | 38.70019 | 39.39805 | 37936 ft | 444 kts | 271° |
| 2026-05-05 20:12 | 38.70377 | 39.31941 | 37935 ft | 441 kts | 271° |
| 2026-05-05 20:13 | 38.70726 | 39.24112 | 37939 ft | 440 kts | 271° |
| 2026-05-05 20:13 | 38.71588 | 39.16361 | 37945 ft | 441 kts | 279° |
| 2026-05-05 20:14 | 38.72812 | 39.08727 | 37941 ft | 441 kts | 279° |
| 2026-05-05 20:14 | 38.74001 | 39.01015 | 37934 ft | 441 kts | 278° |
| 2026-05-05 20:15 | 38.75147 | 38.93285 | 37937 ft | 442 kts | 278° |
| 2026-05-05 20:15 | 38.76290 | 38.85585 | 37940 ft | 444 kts | 279° |
| 2026-05-05 20:16 | 38.77465 | 38.77803 | 37940 ft | 446 kts | 279° |
| 2026-05-05 20:16 | 38.78643 | 38.69987 | 37936 ft | 448 kts | 279° |
| 2026-05-05 20:17 | 38.79818 | 38.62140 | 37943 ft | 449 kts | 279° |
| 2026-05-05 20:17 | 38.80989 | 38.54268 | 37937 ft | 450 kts | 279° |
| 2026-05-05 20:18 | 38.82149 | 38.46429 | 37928 ft | 451 kts | 279° |
| 2026-05-05 20:18 | 38.83312 | 38.38530 | 37938 ft | 450 kts | 279° |
| 2026-05-05 20:19 | 38.84467 | 38.30647 | 37933 ft | 450 kts | 279° |
| 2026-05-05 20:19 | 38.85421 | 38.24108 | 37946 ft | 448 kts | 279° |
| 2026-05-05 20:20 | 38.86563 | 38.16246 | 37941 ft | 447 kts | 279° |
| 2026-05-05 20:20 | 38.87878 | 38.07141 | 37948 ft | 446 kts | 279° |
| 2026-05-05 20:21 | 38.89000 | 37.99332 | 37953 ft | 445 kts | 279° |
| 2026-05-05 20:21 | 38.89927 | 37.92846 | 37953 ft | 444 kts | 279° |
| 2026-05-05 20:22 | 38.91036 | 37.85061 | 37957 ft | 443 kts | 279° |
| 2026-05-05 20:22 | 38.92314 | 37.76030 | 37960 ft | 442 kts | 279° |
| 2026-05-05 20:23 | 38.93222 | 37.69583 | 37977 ft | 441 kts | 279° |
| 2026-05-05 20:23 | 38.94310 | 37.61825 | 37966 ft | 442 kts | 279° |
| 2026-05-05 20:24 | 38.95394 | 37.54056 | 37978 ft | 442 kts | 279° |
| 2026-05-05 20:24 | 38.96475 | 37.46273 | 37979 ft | 443 kts | 279° |
| 2026-05-05 20:25 | 38.97552 | 37.38477 | 37977 ft | 443 kts | 279° |
| 2026-05-05 20:25 | 38.98798 | 37.29404 | 37986 ft | 444 kts | 279° |
| 2026-05-05 20:26 | 38.99686 | 37.22905 | 37993 ft | 444 kts | 279° |
| 2026-05-05 20:26 | 39.00750 | 37.15083 | 37996 ft | 445 kts | 279° |
| 2026-05-05 20:27 | 39.01810 | 37.07249 | 38002 ft | 445 kts | 279° |
| 2026-05-05 20:27 | 39.02859 | 36.99457 | 38010 ft | 445 kts | 279° |
| 2026-05-05 20:28 | 39.03908 | 36.91621 | 38008 ft | 445 kts | 279° |
| 2026-05-05 20:28 | 39.04951 | 36.83789 | 38012 ft | 444 kts | 279° |
| 2026-05-05 20:29 | 39.05988 | 36.75962 | 38013 ft | 443 kts | 279° |
| 2026-05-05 20:29 | 39.07011 | 36.68199 | 38012 ft | 443 kts | 279° |
| 2026-05-05 20:30 | 39.08034 | 36.60392 | 38015 ft | 442 kts | 279° |
| 2026-05-05 20:30 | 39.09050 | 36.52601 | 38014 ft | 441 kts | 279° |
| 2026-05-05 20:31 | 39.10059 | 36.44818 | 38017 ft | 440 kts | 279° |
| 2026-05-05 20:31 | 39.11055 | 36.37091 | 38015 ft | 440 kts | 279° |
| 2026-05-05 20:32 | 39.12051 | 36.29325 | 38015 ft | 440 kts | 279° |
| 2026-05-05 20:32 | 39.13043 | 36.21554 | 38018 ft | 440 kts | 279° |
| 2026-05-05 20:33 | 39.14029 | 36.13782 | 38024 ft | 439 kts | 279° |
| 2026-05-05 20:33 | 39.15003 | 36.06069 | 38017 ft | 439 kts | 279° |
| 2026-05-05 20:34 | 39.15911 | 35.98284 | 38036 ft | 439 kts | 277° |
| 2026-05-05 20:34 | 39.16626 | 35.90468 | 38016 ft | 439 kts | 276° |
| 2026-05-05 20:35 | 39.17324 | 35.82650 | 38028 ft | 439 kts | 276° |
| 2026-05-05 20:35 | 39.18042 | 35.74829 | 38025 ft | 439 kts | 277° |
| 2026-05-05 20:36 | 39.18761 | 35.67066 | 38034 ft | 439 kts | 277° |
| 2026-05-05 20:36 | 39.19481 | 35.59246 | 38025 ft | 439 kts | 277° |
| 2026-05-05 20:37 | 39.20195 | 35.51423 | 38021 ft | 439 kts | 277° |
| 2026-05-05 20:37 | 39.20903 | 35.43597 | 38017 ft | 439 kts | 277° |
| 2026-05-05 20:38 | 39.21601 | 35.35834 | 38022 ft | 439 kts | 277° |
| 2026-05-05 20:38 | 39.22299 | 35.28015 | 38021 ft | 438 kts | 277° |
| 2026-05-05 20:39 | 39.22993 | 35.20209 | 38010 ft | 438 kts | 277° |
| 2026-05-05 20:39 | 39.23689 | 35.12411 | 38009 ft | 437 kts | 277° |
| 2026-05-05 20:40 | 39.24418 | 35.04683 | 38013 ft | 437 kts | 277° |
| 2026-05-05 20:40 | 39.25192 | 34.96916 | 37998 ft | 437 kts | 278° |
| 2026-05-05 20:41 | 39.25988 | 34.89153 | 37994 ft | 436 kts | 278° |
| 2026-05-05 20:41 | 39.26812 | 34.81409 | 37997 ft | 435 kts | 278° |
| 2026-05-05 20:42 | 39.27696 | 34.73680 | 37975 ft | 435 kts | 279° |
| 2026-05-05 20:42 | 39.28626 | 34.66017 | 37975 ft | 435 kts | 279° |
| 2026-05-05 20:43 | 39.29605 | 34.58327 | 37980 ft | 434 kts | 280° |
| 2026-05-05 20:43 | 39.30621 | 34.50648 | 37965 ft | 434 kts | 280° |
| 2026-05-05 20:44 | 39.31660 | 34.42978 | 37946 ft | 434 kts | 281° |
| 2026-05-05 20:44 | 39.32712 | 34.35372 | 37970 ft | 432 kts | 281° |
| 2026-05-05 20:45 | 39.34199 | 34.24746 | 38329 ft | 435 kts | 281° |
| 2026-05-05 20:45 | 39.34721 | 34.20907 | 38608 ft | 433 kts | 280° |
| 2026-05-05 20:45 | 39.35232 | 34.17074 | 38761 ft | 434 kts | 280° |
| 2026-05-05 20:46 | 39.36107 | 34.10444 | 38776 ft | 440 kts | 280° |
| 2026-05-05 20:46 | 39.37118 | 34.02641 | 38905 ft | 444 kts | 279° |
| 2026-05-05 20:47 | 39.37615 | 33.98714 | 39089 ft | 442 kts | 279° |
| 2026-05-05 20:47 | 39.38101 | 33.94797 | 39277 ft | 441 kts | 279° |
| 2026-05-05 20:47 | 39.38582 | 33.90883 | 39381 ft | 442 kts | 279° |
| 2026-05-05 20:47 | 39.39061 | 33.86948 | 39397 ft | 445 kts | 279° |
| 2026-05-05 20:48 | 39.39998 | 33.78984 | 39397 ft | 450 kts | 279° |
| 2026-05-05 20:48 | 39.40455 | 33.74981 | 39503 ft | 449 kts | 279° |